TAF and METAR

Decoding for American and Canadian METARs and TAFs is not fully implemented.

Could not understand the following METAR

KSAV 311153Z 30007KT 10SM SCT095 25/22 A3000 RMK AO2 SLP157 T02500217 10250 20228 53013

TAF for Savannah/Hilton Head International Airport

KSAV 311120Z 3112/0112 35006KT P6SM FEW060 FM312000 05010KT P6SM VCSH BKN040 FM010200 03008KT P6SM SCT025 BKN060
Report created 31. mai 13:20

between 31. mai 14:00 - 1. mai 14:00

wind 6 knots from N (350°)
Savannah/Hilton Head International Airport in United States of America at 14m

Latest 5 airports